Time;durP1;ratioP1;P1;durP2;ratioP2;P2;SDS_P1;SDS_P2;PMS_P1;PMS_P2;Temp;Humidity;BMP_temperature;BMP_pressure;BME280_temperature;BME280_humidity;BME280_pressure;Samples;Min_cycle;Max_cycle;Signal;HPM_P1;HPM_P2
2022/01/04 00:01:13;;;;;;;1.00;0.70;;;6.20;99.90;;;;;;5091875;28;20036;-60
2022/01/04 00:03:40;;;;;;;1.10;0.70;;;6.20;99.90;;;;;;5093986;28;20040;-61
2022/01/04 00:06:06;;;;;;;1.08;0.70;;;6.20;99.90;;;;;;5100258;28;20078;-60
2022/01/04 00:08:32;;;;;;;2.47;1.00;;;6.20;99.90;;;;;;5099093;28;20452;-61
2022/01/04 00:11:07;;;;;;;2.45;0.90;;;6.30;99.90;;;;;;5100613;28;20069;-62
2022/01/04 00:13:34;;;;;;;4.20;0.90;;;6.30;99.90;;;;;;5091129;28;20172;-58
2022/01/04 00:15:59;;;;;;;2.28;0.77;;;6.20;99.90;;;;;;5103208;28;20038;-61
2022/01/04 00:18:25;;;;;;;1.58;0.60;;;6.20;99.90;;;;;;5086496;28;20693;-62
2022/01/04 00:20:51;;;;;;;1.08;0.40;;;6.20;99.90;;;;;;5088797;28;20088;-60
2022/01/04 00:23:18;;;;;;;1.48;0.50;;;6.20;99.90;;;;;;5084109;28;20682;-60
2022/01/04 00:25:44;;;;;;;1.67;0.55;;;6.20;99.90;;;;;;5074657;28;20072;-61
2022/01/04 00:28:10;;;;;;;3.30;0.52;;;6.20;99.90;;;;;;5086327;28;20042;-61
2022/01/04 00:30:38;;;;;;;3.80;0.60;;;6.20;99.90;;;;;;5086882;28;20043;-62
2022/01/04 00:33:06;;;;;;;1.30;0.40;;;6.30;99.90;;;;;;5084075;28;20036;-61
2022/01/04 00:35:32;;;;;;;7.10;1.02;;;6.20;99.90;;;;;;5091305;28;20503;-61
2022/01/04 00:37:58;;;;;;;1.05;0.47;;;6.20;99.90;;;;;;5087177;28;20040;-62
2022/01/04 00:40:25;;;;;;;1.42;0.35;;;6.30;99.90;;;;;;5087756;28;20488;-60
2022/01/04 00:42:51;;;;;;;4.25;0.70;;;6.30;99.90;;;;;;5088441;28;20544;-61
2022/01/04 00:45:17;;;;;;;0.70;0.50;;;6.20;99.90;;;;;;5086654;28;20047;-62
2022/01/04 00:50:22;;;;;;;0.88;0.20;;;6.20;99.90;;;;;;5080361;28;20059;-61
2022/01/04 00:52:49;;;;;;;0.30;0.20;;;6.20;99.90;;;;;;5086703;28;20036;-62
2022/01/04 00:55:15;;;;;;;1.23;0.50;;;6.20;99.90;;;;;;5087595;28;20032;-61
2022/01/04 00:57:41;;;;;;;1.40;0.45;;;6.20;99.90;;;;;;5088068;28;20038;-61
2022/01/04 01:00:09;;;;;;;0.98;0.40;;;6.20;99.90;;;;;;5073486;28;20040;-62
2022/01/04 01:02:34;;;;;;;2.05;0.43;;;6.20;99.90;;;;;;5065633;28;20048;-62
2022/01/04 01:05:00;;;;;;;0.95;0.40;;;6.20;99.90;;;;;;5083209;28;20036;-61
2022/01/04 01:07:26;;;;;;;2.35;1.35;;;6.20;99.90;;;;;;5087259;28;20407;-62
2022/01/04 01:10:13;;;;;;;;;;;6.20;99.90;;;;;;5082176;28;20113;-61
2022/01/04 01:12:39;;;;;;;3.25;0.50;;;6.20;99.90;;;;;;5077562;28;20071;-59
2022/01/04 01:15:06;;;;;;;0.60;0.60;;;6.20;99.90;;;;;;5081278;28;20656;-61
2022/01/04 01:17:32;;;;;;;0.40;0.30;;;6.20;99.90;;;;;;5085813;28;20036;-61
2022/01/04 01:19:59;;;;;;;0.32;0.30;;;6.20;99.90;;;;;;5071086;28;20496;-61
2022/01/04 01:22:24;;;;;;;0.85;0.40;;;6.20;99.90;;;;;;5068586;28;20516;-58
2022/01/04 01:24:50;;;;;;;1.10;0.30;;;6.20;99.90;;;;;;5084248;28;20112;-57
2022/01/04 01:27:16;;;;;;;0.32;0.32;;;6.20;99.90;;;;;;5083948;28;20194;-59
2022/01/04 01:29:41;;;;;;;;;;;6.20;99.90;;;;;;5079090;28;20365;-61
2022/01/04 01:32:07;;;;;;;1.15;0.40;;;6.20;99.90;;;;;;5066802;28;20487;-61
2022/01/04 01:34:33;;;;;;;0.98;0.28;;;6.20;99.90;;;;;;5062919;28;20071;-58
2022/01/04 01:36:59;;;;;;;1.38;0.30;;;6.20;99.90;;;;;;5066697;28;20078;-60
2022/01/04 01:39:24;;;;;;;0.98;0.38;;;6.20;99.90;;;;;;5065087;28;20044;-61
2022/01/04 01:41:50;;;;;;;4.35;0.60;;;6.20;99.90;;;;;;5062471;28;20032;-61
2022/01/04 01:44:16;;;;;;;1.02;0.40;;;6.10;99.90;;;;;;5060874;28;20082;-61
2022/01/04 01:46:42;;;;;;;3.55;0.60;;;6.00;99.90;;;;;;5069419;28;20420;-62
2022/01/04 01:49:08;;;;;;;1.02;0.30;;;6.10;99.90;;;;;;5069426;28;20045;-63
2022/01/04 01:51:33;;;;;;;1.65;0.40;;;6.00;99.90;;;;;;5065360;28;20189;-58
2022/01/04 01:53:59;;;;;;;0.80;0.35;;;6.00;99.90;;;;;;5054003;28;20025;-61
2022/01/04 01:56:26;;;;;;;0.98;0.40;;;6.00;99.90;;;;;;5051069;28;20048;-61
2022/01/04 01:58:52;;;;;;;1.80;0.50;;;6.00;99.90;;;;;;5065938;28;20059;-62
2022/01/04 02:01:17;;;;;;;1.10;0.43;;;6.00;99.90;;;;;;5067483;28;20503;-60
2022/01/04 02:03:43;;;;;;;;;;;6.00;99.90;;;;;;5064946;28;20044;-60
2022/01/04 02:06:10;;;;;;;3.53;0.70;;;6.00;99.90;;;;;;5069054;28;19920;-61
2022/01/04 02:08:36;;;;;;;1.02;0.52;;;5.90;99.90;;;;;;5063381;28;20089;-61
2022/01/04 02:11:02;;;;;;;1.00;0.35;;;6.00;99.90;;;;;;5062538;28;20036;-61
2022/01/04 02:13:28;;;;;;;0.40;0.30;;;6.00;99.90;;;;;;5063258;28;20044;-61
2022/01/04 02:15:55;;;;;;;1.48;0.35;;;6.00;99.90;;;;;;5067365;28;20036;-60
2022/01/04 02:18:20;;;;;;;1.08;0.20;;;6.10;99.90;;;;;;5062204;28;20064;-59
2022/01/04 02:20:46;;;;;;;2.35;0.50;;;6.00;99.90;;;;;;5063512;28;20052;-60
2022/01/04 02:23:12;;;;;;;;;;;6.00;99.90;;;;;;5064674;28;20032;-60
2022/01/04 02:25:37;;;;;;;0.65;0.30;;;6.00;99.90;;;;;;5051552;28;19921;-59
2022/01/04 02:28:03;;;;;;;;;;;6.00;99.90;;;;;;5059352;28;20037;-59
2022/01/04 02:30:29;;;;;;;2.58;0.30;;;6.00;99.90;;;;;;5063736;28;19924;-60
2022/01/04 02:32:55;;;;;;;0.43;0.25;;;6.00;99.90;;;;;;5065530;28;20091;-60
2022/01/04 02:35:25;;;;;;;1.23;0.68;;;5.90;99.90;;;;;;5065283;28;20098;-58
2022/01/04 02:37:56;;;;;;;1.52;0.47;;;5.90;99.90;;;;;;5064383;28;20040;-58
2022/01/04 02:40:21;;;;;;;0.82;0.30;;;5.90;99.90;;;;;;5061573;28;20044;-62
2022/01/04 02:42:47;;;;;;;1.15;0.60;;;5.90;99.90;;;;;;5064895;28;20033;-58
2022/01/04 02:45:13;;;;;;;3.38;0.40;;;5.90;99.90;;;;;;5063499;28;20046;-61
2022/01/04 02:47:39;;;;;;;0.75;0.30;;;5.90;99.90;;;;;;5065253;28;20143;-61
2022/01/04 02:50:05;;;;;;;0.80;0.30;;;5.90;99.90;;;;;;5053346;28;20395;-60
2022/01/04 02:52:33;;;;;;;0.57;0.30;;;5.90;99.90;;;;;;5062299;28;20048;-60
2022/01/04 02:55:00;;;;;;;1.80;0.20;;;5.90;99.90;;;;;;5057670;28;20036;-59
2022/01/04 02:57:26;;;;;;;2.85;0.40;;;5.80;99.90;;;;;;5066829;28;20059;-60
2022/01/04 02:59:51;;;;;;;1.10;0.43;;;5.80;99.90;;;;;;5053224;28;20467;-61
2022/01/04 03:02:17;;;;;;;6.68;0.40;;;5.80;99.90;;;;;;5063982;28;20044;-58
2022/01/04 03:04:43;;;;;;;2.03;0.40;;;5.90;99.90;;;;;;5061983;28;20093;-61
2022/01/04 03:07:09;;;;;;;1.92;0.40;;;5.80;99.90;;;;;;5066648;28;20040;-61
2022/01/04 03:09:35;;;;;;;0.55;0.32;;;5.90;99.90;;;;;;5060645;28;20036;-60
2022/01/04 03:12:00;;;;;;;0.98;0.32;;;5.90;99.90;;;;;;5063370;28;20458;-60
2022/01/04 03:14:26;;;;;;;1.75;0.30;;;5.90;99.90;;;;;;5063959;28;20041;-61
2022/01/04 03:16:51;;;;;;;;;;;5.90;99.90;;;;;;5065233;28;20033;-62
2022/01/04 03:19:17;;;;;;;0.95;0.30;;;5.80;99.90;;;;;;5052245;28;20023;-58
2022/01/04 03:21:44;;;;;;;0.60;0.32;;;5.90;99.90;;;;;;5064580;28;20083;-61
2022/01/04 03:24:12;;;;;;;1.27;0.13;;;5.90;99.90;;;;;;5064613;28;20094;-61
2022/01/04 03:26:38;;;;;;;2.30;1.00;;;5.90;99.90;;;;;;5066662;28;20075;-61
2022/01/04 03:29:06;;;;;;;2.55;0.40;;;5.90;99.90;;;;;;5060351;28;20045;-60
2022/01/04 03:31:32;;;;;;;0.52;0.17;;;5.90;99.90;;;;;;5062869;28;20041;-60
2022/01/04 03:33:58;;;;;;;1.30;0.28;;;5.80;99.90;;;;;;5060309;28;20467;-60
2022/01/04 03:36:24;;;;;;;9.07;0.45;;;5.80;99.90;;;;;;5062454;28;20057;-61
2022/01/04 03:38:52;;;;;;;1.45;0.30;;;5.90;99.90;;;;;;5063857;28;20565;-60
2022/01/04 03:41:19;;;;;;;0.70;0.20;;;5.80;99.90;;;;;;5062023;28;20025;-61
2022/01/04 03:43:45;;;;;;;0.63;0.20;;;5.80;99.90;;;;;;5057925;28;20312;-59
2022/01/04 03:46:12;;;;;;;0.77;0.30;;;5.90;99.90;;;;;;5066775;28;20553;-61
2022/01/04 03:48:38;;;;;;;2.03;0.30;;;5.80;99.90;;;;;;5079094;28;20760;-60
2022/01/04 03:51:04;;;;;;;0.63;0.35;;;5.80;99.90;;;;;;5082638;28;20123;-62
2022/01/04 03:53:30;;;;;;;0.98;0.20;;;5.90;99.90;;;;;;5083080;28;20157;-60
2022/01/04 03:55:56;;;;;;;3.17;0.52;;;5.90;99.90;;;;;;5084385;28;20500;-60
2022/01/04 03:58:22;;;;;;;3.03;0.30;;;5.90;99.90;;;;;;5088210;28;20036;-61
2022/01/04 04:00:47;;;;;;;;;;;5.80;99.90;;;;;;5083495;28;20056;-60
2022/01/04 04:03:13;;;;;;;0.53;0.30;;;5.80;99.90;;;;;;5084667;28;19955;-59
2022/01/04 04:05:38;;;;;;;;;;;5.80;99.90;;;;;;5086872;28;20028;-58
2022/01/04 04:08:04;;;;;;;0.80;0.20;;;5.70;99.90;;;;;;5083627;28;19981;-60
2022/01/04 04:10:30;;;;;;;0.52;0.30;;;5.80;99.90;;;;;;5086515;28;20071;-61
2022/01/04 04:12:56;;;;;;;1.33;0.30;;;5.80;99.90;;;;;;5086697;28;20578;-62
2022/01/04 04:15:22;;;;;;;0.15;0.15;;;5.80;99.90;;;;;;5075250;28;20127;-61
2022/01/04 04:17:47;;;;;;;;;;;5.80;99.90;;;;;;5084823;28;20036;-60
2022/01/04 04:20:14;;;;;;;0.20;0.20;;;5.80;99.90;;;;;;5079933;28;19969;-60
2022/01/04 04:22:39;;;;;;;0.20;0.20;;;5.80;99.90;;;;;;5087481;28;20072;-61
2022/01/04 04:25:06;;;;;;;0.65;0.20;;;5.80;99.90;;;;;;5078488;28;20068;-59
2022/01/04 04:27:31;;;;;;;0.17;0.17;;;5.80;99.90;;;;;;5086881;28;20055;-61
2022/01/04 04:29:57;;;;;;;0.10;0.10;;;5.70;99.90;;;;;;5086596;28;20047;-61
2022/01/04 04:32:22;;;;;;;0.40;0.20;;;5.70;99.90;;;;;;5088271;28;20066;-60
2022/01/04 04:34:48;;;;;;;0.65;0.50;;;5.70;99.90;;;;;;5081044;28;20063;-60
2022/01/04 04:37:14;;;;;;;2.30;0.30;;;5.60;99.90;;;;;;5087644;28;20071;-60
2022/01/04 04:39:39;;;;;;;0.20;0.20;;;5.60;99.90;;;;;;5085039;28;20155;-61
2022/01/04 04:42:05;;;;;;;1.02;0.20;;;5.60;99.90;;;;;;5089253;28;20042;-60
2022/01/04 04:44:31;;;;;;;0.17;0.17;;;5.60;99.90;;;;;;5084555;28;20036;-64
2022/01/04 04:46:57;;;;;;;5.55;0.30;;;5.70;99.90;;;;;;5089277;28;20040;-60
2022/01/04 04:49:23;;;;;;;1.15;0.20;;;5.70;99.90;;;;;;5083673;28;20044;-60
2022/01/04 04:51:48;;;;;;;0.10;0.10;;;5.60;99.90;;;;;;5089219;28;20032;-61
2022/01/04 04:54:14;;;;;;;0.10;0.10;;;5.60;99.90;;;;;;5085793;28;20039;-59
2022/01/04 04:56:39;;;;;;;;;;;5.60;99.90;;;;;;5090824;28;20036;-60
2022/01/04 04:59:08;;;;;;;0.52;0.20;;;5.60;99.90;;;;;;5082741;28;19920;-61
2022/01/04 05:01:35;;;;;;;0.90;0.30;;;5.50;99.90;;;;;;5077337;28;20115;-62
2022/01/04 05:04:01;;;;;;;0.10;0.10;;;5.40;99.90;;;;;;5083098;28;20100;-60
2022/01/04 05:06:26;;;;;;;0.10;0.10;;;5.40;99.90;;;;;;5084598;28;20043;-60
2022/01/04 05:08:53;;;;;;;0.45;0.20;;;5.30;99.90;;;;;;5083702;28;20570;-61
2022/01/04 05:11:18;;;;;;;0.10;0.10;;;5.30;99.90;;;;;;5090164;28;20043;-60
2022/01/04 05:13:44;;;;;;;1.08;0.17;;;5.40;99.90;;;;;;5087519;28;20032;-61
2022/01/04 05:16:10;;;;;;;0.25;0.20;;;5.40;99.90;;;;;;5080155;28;20036;-61
2022/01/04 05:18:36;;;;;;;;;;;5.40;99.90;;;;;;5081243;28;20029;-62
2022/01/04 05:21:02;;;;;;;0.20;0.20;;;5.40;99.90;;;;;;5077100;28;20402;-59
2022/01/04 05:23:28;;;;;;;2.53;0.20;;;5.40;99.90;;;;;;5076658;28;20054;-60
2022/01/04 05:25:53;;;;;;;0.40;0.10;;;5.40;99.90;;;;;;5078530;28;20044;-61
2022/01/04 05:28:19;;;;;;;;;;;5.50;99.90;;;;;;5072301;28;20221;-66
2022/01/04 05:30:44;;;;;;;0.30;0.20;;;5.50;99.90;;;;;;5082783;28;19969;-60
2022/01/04 05:33:10;;;;;;;;;;;5.50;99.90;;;;;;5076478;28;20124;-61
2022/01/04 05:35:35;;;;;;;2.33;0.20;;;5.50;99.90;;;;;;5082857;28;19954;-62
2022/01/04 05:38:01;;;;;;;0.22;0.10;;;5.50;99.90;;;;;;5087130;27;20036;-63
2022/01/04 05:40:26;;;;;;;;;;;5.50;99.90;;;;;;5076731;28;20085;-62
2022/01/04 05:42:52;;;;;;;0.40;0.20;;;5.50;99.90;;;;;;5078430;28;20396;-64
2022/01/04 05:45:17;;;;;;;;;;;5.50;99.90;;;;;;5078946;28;20032;-62
2022/01/04 05:47:43;;;;;;;0.63;0.47;;;5.50;99.90;;;;;;5082710;28;19967;-62
2022/01/04 05:50:09;;;;;;;0.30;0.20;;;5.40;99.90;;;;;;5096734;28;20568;-62
2022/01/04 05:52:35;;;;;;;0.40;0.28;;;5.40;99.90;;;;;;5080038;27;20039;-63
2022/01/04 05:55:00;;;;;;;;;;;5.40;99.90;;;;;;5073631;28;20040;-63
2022/01/04 05:57:26;;;;;;;0.22;0.20;;;5.40;99.90;;;;;;5074343;28;19920;-63
2022/01/04 05:59:52;;;;;;;0.28;0.20;;;5.40;99.90;;;;;;5072436;28;20048;-62
2022/01/04 06:02:18;;;;;;;;;;;5.40;99.90;;;;;;5073392;28;20510;-63
2022/01/04 06:04:43;;;;;;;0.73;0.20;;;5.40;99.90;;;;;;5077721;28;20338;-63
2022/01/04 06:07:09;;;;;;;0.50;0.40;;;5.40;99.90;;;;;;5072092;28;20075;-63
2022/01/04 06:09:45;;;;;;;0.30;0.20;;;5.40;99.90;;;;;;5080115;28;20090;-62
2022/01/04 06:14:51;;;;;;;1.15;0.43;;;5.40;99.90;;;;;;5079578;28;20047;-62
2022/01/04 06:17:18;;;;;;;2.88;0.50;;;5.30;99.90;;;;;;5076233;28;20049;-62
2022/01/04 06:19:43;;;;;;;1.17;0.50;;;5.40;99.90;;;;;;5073871;28;20043;-63
2022/01/04 06:22:09;;;;;;;0.47;0.30;;;5.40;99.90;;;;;;5079297;28;20040;-62
2022/01/04 06:24:36;;;;;;;0.45;0.22;;;5.40;99.90;;;;;;5076525;28;20432;-63
2022/01/04 06:27:08;;;;;;;1.55;0.35;;;5.40;99.90;;;;;;5075421;28;20048;-63
2022/01/04 06:29:34;;;;;;;0.30;0.28;;;5.40;99.90;;;;;;5075305;28;20043;-62
2022/01/04 06:32:00;;;;;;;0.15;0.10;;;5.50;99.90;;;;;;5076998;28;20036;-62
2022/01/04 06:34:26;;;;;;;0.20;0.20;;;5.40;99.90;;;;;;5072835;28;20044;-62
2022/01/04 06:36:51;;;;;;;0.50;0.20;;;5.40;99.90;;;;;;5075615;28;20040;-63
2022/01/04 06:39:17;;;;;;;0.13;0.10;;;5.40;99.90;;;;;;5076047;28;20123;-62
2022/01/04 06:41:43;;;;;;;0.20;0.20;;;5.40;99.90;;;;;;5073578;28;20040;-61
2022/01/04 06:44:08;;;;;;;1.67;0.20;;;5.40;99.90;;;;;;5074679;28;20044;-63
2022/01/04 06:46:34;;;;;;;0.32;0.20;;;5.40;99.90;;;;;;5073108;28;20045;-62
2022/01/04 06:49:00;;;;;;;2.55;0.30;;;5.40;99.90;;;;;;5073665;28;20035;-63
2022/01/04 06:51:26;;;;;;;2.47;0.20;;;5.40;99.90;;;;;;5076316;28;20040;-62
2022/01/04 06:53:52;;;;;;;1.95;0.35;;;5.40;99.90;;;;;;5072705;28;20107;-62
2022/01/04 06:56:17;;;;;;;0.50;0.20;;;5.30;99.90;;;;;;5075652;28;20036;-62
2022/01/04 06:58:43;;;;;;;0.30;0.20;;;5.30;99.90;;;;;;5073201;28;20032;-62
2022/01/04 07:01:09;;;;;;;1.10;0.40;;;5.30;99.90;;;;;;5070120;28;20029;-62
2022/01/04 07:03:35;;;;;;;0.30;0.20;;;5.30;99.90;;;;;;5079734;28;20656;-62
2022/01/04 07:06:01;;;;;;;2.13;0.30;;;5.30;99.90;;;;;;5076926;28;20503;-62
2022/01/04 07:08:26;;;;;;;;;;;5.30;99.90;;;;;;5073738;28;20032;-63
2022/01/04 07:10:52;;;;;;;0.75;0.45;;;5.30;99.90;;;;;;5076234;28;19927;-63
2022/01/04 07:13:18;;;;;;;1.13;0.50;;;5.30;99.90;;;;;;5072493;28;20124;-64
2022/01/04 07:15:45;;;;;;;0.75;0.43;;;5.20;99.90;;;;;;5071050;28;20067;-64
2022/01/04 07:18:11;;;;;;;0.50;0.40;;;5.20;99.90;;;;;;5068990;28;20424;-63
2022/01/04 07:20:37;;;;;;;0.70;0.50;;;5.20;99.90;;;;;;5071962;28;20040;-63
2022/01/04 07:23:03;;;;;;;1.23;0.80;;;5.20;99.90;;;;;;5075511;28;20098;-64
2022/01/04 07:25:29;;;;;;;1.10;0.60;;;5.20;99.90;;;;;;5073111;28;20044;-64
2022/01/04 07:27:54;;;;;;;1.17;0.60;;;5.20;99.90;;;;;;5078660;28;20040;-62
2022/01/04 07:30:20;;;;;;;0.77;0.70;;;5.20;99.90;;;;;;5079240;28;20038;-63
2022/01/04 07:32:46;;;;;;;1.63;0.75;;;5.20;99.90;;;;;;5078290;28;20033;-64
2022/01/04 07:35:11;;;;;;;;;;;5.20;99.90;;;;;;5082559;28;20032;-62
2022/01/04 07:37:37;;;;;;;0.85;0.45;;;5.20;99.90;;;;;;5081062;28;19978;-63
2022/01/04 07:40:04;;;;;;;2.97;0.45;;;5.20;99.90;;;;;;5074618;28;20079;-62
2022/01/04 07:42:30;;;;;;;0.22;0.20;;;5.20;99.90;;;;;;5081334;28;20047;-64
2022/01/04 07:44:55;;;;;;;0.90;0.50;;;5.20;99.90;;;;;;5079581;28;20036;-64
2022/01/04 07:47:21;;;;;;;;;;;5.20;99.90;;;;;;5075129;28;20044;-63
2022/01/04 07:49:46;;;;;;;0.40;0.32;;;5.30;99.90;;;;;;5076309;28;19920;-62
2022/01/04 07:52:12;;;;;;;;;;;5.40;99.90;;;;;;5075961;28;20040;-62
2022/01/04 07:54:37;;;;;;;2.15;0.43;;;5.30;99.90;;;;;;5073174;28;20295;-62
2022/01/04 07:57:03;;;;;;;1.60;0.45;;;5.30;99.90;;;;;;5069679;28;20058;-63
2022/01/04 07:59:30;;;;;;;;;;;5.30;99.90;;;;;;5075402;28;20127;-63
2022/01/04 08:01:57;;;;;;;0.82;0.38;;;5.20;99.90;;;;;;5081446;28;19958;-63
2022/01/04 08:04:22;;;;;;;0.50;0.30;;;5.30;99.90;;;;;;5072237;28;20040;-62
2022/01/04 08:06:48;;;;;;;0.28;0.20;;;5.20;99.90;;;;;;5080043;28;20737;-61
2022/01/04 08:09:13;;;;;;;0.50;0.25;;;5.20;99.90;;;;;;5084250;28;20036;-63
2022/01/04 08:11:39;;;;;;;0.20;0.20;;;5.20;99.90;;;;;;5081661;28;20032;-62
2022/01/04 08:14:05;;;;;;;;;;;5.20;99.90;;;;;;5074483;28;20123;-61
2022/01/04 08:16:30;;;;;;;1.38;0.80;;;5.20;99.90;;;;;;5078949;28;19916;-64
2022/01/04 08:18:56;;;;;;;3.53;0.70;;;5.20;99.90;;;;;;5072501;28;20039;-63
2022/01/04 08:21:22;;;;;;;1.05;0.60;;;5.20;99.90;;;;;;5079809;28;20044;-63
2022/01/04 08:23:47;;;;;;;;;;;5.20;99.90;;;;;;5075820;28;20025;-62
2022/01/04 08:26:13;;;;;;;0.50;0.35;;;5.20;99.90;;;;;;5071015;28;19920;-63
2022/01/04 08:28:38;;;;;;;0.73;0.40;;;5.20;99.90;;;;;;5075544;28;20502;-63
2022/01/04 08:31:05;;;;;;;;;;;5.30;99.90;;;;;;5068071;28;20041;-63
2022/01/04 08:33:30;;;;;;;0.30;0.30;;;5.30;99.90;;;;;;5071057;28;20368;-63
2022/01/04 08:35:56;;;;;;;;;;;5.30;99.90;;;;;;5076066;28;20116;-63
2022/01/04 08:38:21;;;;;;;0.20;0.20;;;5.30;99.90;;;;;;5067750;28;20419;-62
2022/01/04 08:40:47;;;;;;;0.60;0.25;;;5.30;99.90;;;;;;5080583;28;20640;-62
2022/01/04 08:43:12;;;;;;;0.47;0.30;;;5.40;99.90;;;;;;5075279;28;20106;-62
2022/01/04 08:45:38;;;;;;;0.22;0.20;;;5.40;99.90;;;;;;5078181;28;20090;-62
2022/01/04 08:48:04;;;;;;;1.00;0.38;;;5.40;99.90;;;;;;5073078;28;20032;-62
2022/01/04 08:50:30;;;;;;;0.30;0.22;;;5.40;99.90;;;;;;5077846;28;20511;-63
2022/01/04 08:52:56;;;;;;;0.40;0.32;;;5.40;99.90;;;;;;5071589;28;20152;-63
2022/01/04 08:55:24;;;;;;;0.38;0.30;;;5.40;99.90;;;;;;5071830;28;20083;-63
2022/01/04 08:57:49;;;;;;;0.50;0.30;;;5.50;99.90;;;;;;5073360;28;20037;-61
2022/01/04 09:00:16;;;;;;;0.65;0.60;;;5.50;99.90;;;;;;5080020;28;20039;-63
2022/01/04 09:02:43;;;;;;;0.75;0.50;;;5.50;99.90;;;;;;5069126;28;20036;-62
2022/01/04 09:05:10;;;;;;;0.77;0.40;;;5.50;99.90;;;;;;5076939;28;20070;-61
2022/01/04 09:07:37;;;;;;;0.70;0.57;;;5.50;99.90;;;;;;5072349;28;20052;-63
2022/01/04 09:10:04;;;;;;;1.02;0.70;;;5.50;99.90;;;;;;5075258;28;20058;-64
2022/01/04 09:12:42;;;;;;;0.93;0.52;;;5.50;99.90;;;;;;5070120;28;20033;-65
2022/01/04 09:15:30;;;;;;;1.42;0.43;;;5.50;99.90;;;;;;5080655;28;20043;-64
2022/01/04 09:20:41;;;;;;;1.40;0.68;;;5.50;99.90;;;;;;5081182;28;20488;-62
2022/01/04 09:23:07;;;;;;;0.63;0.50;;;5.50;99.90;;;;;;5072459;28;20098;-63
2022/01/04 09:25:32;;;;;;;2.38;0.75;;;5.50;99.90;;;;;;5065844;28;20041;-63
2022/01/04 09:27:58;;;;;;;1.98;1.00;;;5.50;99.90;;;;;;5072348;28;20032;-63
2022/01/04 09:30:24;;;;;;;;;;;5.50;99.90;;;;;;5076548;28;20042;-63
2022/01/04 09:32:50;;;;;;;1.10;0.70;;;5.50;99.90;;;;;;5072182;28;19947;-64
2022/01/04 09:35:15;;;;;;;3.17;0.90;;;5.60;99.90;;;;;;5077907;28;20028;-63
2022/01/04 09:37:41;;;;;;;;;;;5.60;99.90;;;;;;5072619;28;20540;-63
2022/01/04 09:40:08;;;;;;;1.48;0.70;;;5.60;99.90;;;;;;5074223;28;19920;-63
2022/01/04 09:42:35;;;;;;;1.75;0.88;;;5.60;99.90;;;;;;5079920;28;20036;-63
2022/01/04 09:45:01;;;;;;;1.55;1.00;;;5.70;99.90;;;;;;5077634;28;20037;-63
2022/01/04 09:47:29;;;;;;;1.88;0.90;;;5.70;99.90;;;;;;5077554;28;20040;-63
2022/01/04 09:49:55;;;;;;;1.73;1.00;;;5.70;99.90;;;;;;5075027;28;20105;-60
2022/01/04 09:52:21;;;;;;;1.60;0.98;;;5.70;99.90;;;;;;5077379;28;20510;-62
2022/01/04 09:54:51;;;;;;;1.83;0.90;;;5.60;99.90;;;;;;5085287;28;20482;-62
2022/01/04 09:57:17;;;;;;;1.30;0.75;;;5.60;99.90;;;;;;5087156;28;20119;-62
2022/01/04 09:59:43;;;;;;;3.85;0.93;;;5.60;99.90;;;;;;5091742;28;20041;-62
2022/01/04 10:02:15;;;;;;;2.33;1.02;;;5.60;99.90;;;;;;5078588;28;20036;-62
2022/01/04 10:04:40;;;;;;;3.03;1.08;;;5.70;99.90;;;;;;5084519;28;20032;-62
2022/01/04 10:07:07;;;;;;;1.50;1.10;;;5.60;99.90;;;;;;5072827;28;20099;-62
2022/01/04 10:09:45;;;;;;;2.65;1.08;;;5.60;99.90;;;;;;5069983;28;20508;-59
2022/01/04 10:12:13;;;;;;;1.90;1.10;;;5.70;99.90;;;;;;5074328;28;20047;-60
2022/01/04 10:14:43;;;;;;;2.38;1.00;;;5.70;99.90;;;;;;5082556;28;20040;-62
2022/01/04 10:17:10;;;;;;;3.53;1.00;;;5.70;99.90;;;;;;5076606;28;20117;-62
2022/01/04 10:19:39;;;;;;;2.03;1.05;;;5.70;99.90;;;;;;5072681;28;20040;-62
2022/01/04 10:22:15;;;;;;;3.38;1.08;;;5.80;99.90;;;;;;5073986;28;20051;-62
2022/01/04 10:24:42;;;;;;;4.28;1.20;;;5.80;99.90;;;;;;5078207;28;20104;-62
2022/01/04 10:27:25;;;;;;;1.42;1.00;;;5.80;99.90;;;;;;5076267;28;20062;-62
2022/01/04 10:30:31;;;;;;;2.40;1.30;;;5.80;99.90;;;;;;5075626;28;20036;-61
2022/01/04 10:33:08;;;;;;;3.60;1.83;;;5.90;99.90;;;;;;4996649;28;20686;-62
2022/01/04 10:35:43;;;;;;;4.03;1.30;;;5.80;99.90;;;;;;5051776;28;20105;-60
2022/01/04 10:38:10;;;;;;;4.63;1.20;;;5.80;99.90;;;;;;5049067;28;20098;-58
2022/01/04 10:40:36;;;;;;;2.08;1.20;;;5.80;99.90;;;;;;5058117;28;20040;-61
2022/01/04 10:43:15;;;;;;;1.83;1.05;;;5.80;99.90;;;;;;5054076;28;20039;-62
2022/01/04 10:45:45;;;;;;;2.58;1.20;;;5.90;99.90;;;;;;5057850;28;20036;-61
2022/01/04 10:48:17;;;;;;;3.60;1.00;;;5.80;99.90;;;;;;5070762;28;20490;-62
2022/01/04 10:50:46;;;;;;;2.08;1.27;;;5.80;99.90;;;;;;5078609;28;20044;-62
2022/01/04 10:53:20;;;;;;;1.67;0.90;;;5.80;99.90;;;;;;5074068;28;20076;-62
2022/01/04 10:55:47;;;;;;;2.53;1.08;;;5.70;99.90;;;;;;5077012;28;20046;-62
2022/01/04 10:58:31;;;;;;;5.20;1.00;;;5.80;99.90;;;;;;5072074;28;20044;-62
2022/01/04 11:01:17;;;;;;;3.92;1.08;;;5.90;99.90;;;;;;5072662;28;20032;-61
2022/01/04 11:03:45;;;;;;;4.13;1.27;;;5.90;99.90;;;;;;5070559;28;20043;-62
2022/01/04 11:06:12;;;;;;;1.55;0.45;;;5.90;99.90;;;;;;5076715;28;20046;-60
2022/01/04 11:08:40;;;;;;;1.13;0.80;;;5.80;99.90;;;;;;5071282;28;20052;-62
2022/01/04 11:11:06;;;;;;;2.67;1.20;;;5.70;99.90;;;;;;5063884;28;20043;-61
2022/01/04 11:13:32;;;;;;;4.05;0.80;;;5.70;99.90;;;;;;5077412;28;20036;-62
2022/01/04 11:15:58;;;;;;;2.75;1.23;;;5.70;99.90;;;;;;5074868;28;20066;-62
2022/01/04 11:18:24;;;;;;;1.17;0.70;;;5.70;99.90;;;;;;5073008;28;20052;-58
2022/01/04 11:20:51;;;;;;;2.50;1.02;;;5.70;99.90;;;;;;5078521;28;20400;-61
2022/01/04 11:23:21;;;;;;;4.68;1.13;;;5.60;99.90;;;;;;5070837;28;20050;-62
2022/01/04 11:25:48;;;;;;;2.45;0.95;;;5.60;99.90;;;;;;5075811;28;20036;-62
2022/01/04 11:28:15;;;;;;;2.03;1.10;;;5.60;99.90;;;;;;5070651;28;20032;-61
2022/01/04 11:30:46;;;;;;;3.35;1.45;;;5.60;99.90;;;;;;5070143;28;20122;-62
2022/01/04 11:33:32;;;;;;;4.10;1.30;;;5.60;99.90;;;;;;5073708;28;20438;-62
2022/01/04 11:35:59;;;;;;;5.20;1.38;;;5.60;99.90;;;;;;5073162;28;20106;-62
2022/01/04 11:38:35;;;;;;;2.63;1.27;;;5.60;99.90;;;;;;5073226;28;20178;-61
2022/01/04 11:41:02;;;;;;;2.63;1.17;;;5.60;99.90;;;;;;5072919;28;20488;-62
2022/01/04 11:43:31;;;;;;;3.88;1.73;;;5.60;99.90;;;;;;5068951;28;20376;-62
2022/01/04 11:45:58;;;;;;;2.60;1.80;;;5.70;99.90;;;;;;5071207;28;20076;-62
2022/01/04 11:48:30;;;;;;;4.40;1.73;;;5.70;99.90;;;;;;5069463;28;20663;-62
2022/01/04 11:50:59;;;;;;;4.30;1.67;;;5.70;99.90;;;;;;5075804;28;20094;-61
2022/01/04 11:53:24;;;;;;;3.60;1.45;;;5.70;99.90;;;;;;5073432;28;20500;-59
2022/01/04 11:55:53;;;;;;;3.22;1.20;;;5.60;99.90;;;;;;5081207;28;20115;-61
2022/01/04 11:58:24;;;;;;;5.38;1.40;;;5.50;99.90;;;;;;5075765;28;20047;-62
2022/01/04 12:01:01;;;;;;;3.45;1.20;;;5.50;99.90;;;;;;5072114;28;20038;-62
2022/01/04 12:03:41;;;;;;;2.92;1.27;;;5.50;99.90;;;;;;5076481;28;20044;-63
2022/01/04 12:06:08;;;;;;;3.95;1.10;;;5.50;99.90;;;;;;5101645;28;20709;-64
2022/01/04 12:08:47;;;;;;;1.88;1.00;;;5.50;99.90;;;;;;5078512;28;20040;-63
2022/01/04 12:11:19;;;;;;;1.30;0.70;;;5.40;99.90;;;;;;5084975;28;20041;-63
2022/01/04 12:13:47;;;;;;;1.98;1.25;;;5.40;99.90;;;;;;5084257;28;20425;-62
2022/01/04 12:16:14;;;;;;;3.70;0.80;;;5.50;99.90;;;;;;5082857;28;20040;-62
2022/01/04 12:18:39;;;;;;;1.42;0.70;;;5.40;99.90;;;;;;5084815;28;20033;-60
2022/01/04 12:21:14;;;;;;;1.27;0.90;;;5.40;99.90;;;;;;5078066;28;20040;-61
2022/01/04 12:23:39;;;;;;;1.73;1.23;;;5.50;99.90;;;;;;5070329;28;20040;-61
2022/01/04 12:28:36;;;;;;;0.98;0.88;;;5.60;99.90;;;;;;5071428;28;20041;-61
2022/01/04 12:31:16;;;;;;;3.00;0.63;;;5.50;99.90;;;;;;5076644;28;20039;-61
2022/01/04 12:34:02;;;;;;;1.45;0.80;;;5.60;99.90;;;;;;5085665;28;20453;-61
2022/01/04 12:36:33;;;;;;;1.60;0.82;;;5.60;99.90;;;;;;5089041;28;20438;-62
2022/01/04 12:39:04;;;;;;;3.03;0.95;;;5.60;99.90;;;;;;5085467;28;20036;-60
2022/01/04 12:41:31;;;;;;;1.63;1.00;;;5.60;99.90;;;;;;5085906;28;20502;-60
2022/01/04 12:43:58;;;;;;;2.10;0.90;;;5.60;99.90;;;;;;5073478;28;20544;-62
2022/01/04 12:46:29;;;;;;;4.50;1.10;;;5.60;99.90;;;;;;5078262;28;20048;-62
2022/01/04 12:49:01;;;;;;;3.88;1.38;;;5.60;99.90;;;;;;5073532;28;20542;-58
2022/01/04 12:51:32;;;;;;;2.70;1.17;;;5.60;99.90;;;;;;5072909;28;20079;-62
2022/01/04 12:54:02;;;;;;;3.03;1.10;;;5.60;99.90;;;;;;5081051;28;20036;-62
2022/01/04 12:56:29;;;;;;;1.77;1.30;;;5.60;99.90;;;;;;5095443;28;20054;-59
2022/01/04 12:58:56;;;;;;;1.70;1.17;;;5.50;99.90;;;;;;5078827;28;20106;-61
2022/01/04 13:01:23;;;;;;;4.55;1.75;;;5.60;99.90;;;;;;5082997;28;20059;-62
2022/01/04 13:03:49;;;;;;;1.50;1.00;;;5.60;99.90;;;;;;5073050;28;20036;-62
2022/01/04 13:06:15;;;;;;;1.60;1.15;;;5.60;99.90;;;;;;5078302;28;20131;-62
2022/01/04 13:08:49;;;;;;;1.77;1.13;;;5.50;99.90;;;;;;5074330;28;20135;-61
2022/01/04 13:11:15;;;;;;;1.70;1.10;;;5.60;99.90;;;;;;5074750;28;20036;-61
2022/01/04 13:13:40;;;;;;;1.63;0.90;;;5.60;99.90;;;;;;5082736;28;20059;-61
2022/01/04 13:16:22;;;;;;;2.88;1.40;;;5.50;99.90;;;;;;5094470;28;20035;-61